createdAt,value
2018-10-16T00:00:15.774Z,15.70
2018-10-16T00:02:45.656Z,15.70
2018-10-16T00:05:15.613Z,15.70
2018-10-16T00:07:44.893Z,15.60
2018-10-16T00:10:18.375Z,15.70
2018-10-16T00:12:48.044Z,15.80
2018-10-16T00:15:17.394Z,15.80
2018-10-16T00:17:46.687Z,15.70
2018-10-16T00:20:15.969Z,15.70
2018-10-16T00:22:45.981Z,15.70
2018-10-16T00:25:16.994Z,15.70
2018-10-16T00:27:46.506Z,15.70
2018-10-16T00:30:15.850Z,15.80
2018-10-16T00:32:45.228Z,15.80
2018-10-16T00:35:14.667Z,15.80
2018-10-16T00:37:44.153Z,15.80
2018-10-16T00:40:14.102Z,15.80
2018-10-16T00:42:43.405Z,15.80
2018-10-16T00:45:13.069Z,15.80
2018-10-16T00:47:42.375Z,15.80
2018-10-16T00:50:11.688Z,15.80
2018-10-16T00:52:40.998Z,15.70
2018-10-16T00:55:10.886Z,15.70
2018-10-16T00:57:40.936Z,15.70
2018-10-16T01:00:11.828Z,15.80
2018-10-16T01:02:42.061Z,15.70
2018-10-16T01:05:12.403Z,15.70
2018-10-16T01:07:42.411Z,15.60
2018-10-16T01:10:12.618Z,15.60
2018-10-16T01:12:42.226Z,15.50
2018-10-16T01:15:12.389Z,15.50
2018-10-16T01:17:41.964Z,15.50
2018-10-16T01:20:12.904Z,15.50
2018-10-16T01:22:42.828Z,15.50
2018-10-16T01:25:13.458Z,15.50
2018-10-16T01:27:42.905Z,15.50
2018-10-16T01:30:12.187Z,15.50
2018-10-16T01:32:41.498Z,15.60
2018-10-16T01:35:12.127Z,15.60
2018-10-16T01:37:41.775Z,15.60
2018-10-16T01:40:11.612Z,15.70
2018-10-16T01:42:41.002Z,15.70
2018-10-16T01:45:11.025Z,15.70
2018-10-16T01:47:41.038Z,15.60
2018-10-16T01:50:10.404Z,15.60
2018-10-16T01:52:39.661Z,15.70
2018-10-16T01:55:08.983Z,15.70
2018-10-16T01:57:38.438Z,15.70
2018-10-16T02:00:09.418Z,15.70
2018-10-16T02:02:39.025Z,15.60
2018-10-16T02:05:08.612Z,15.70
2018-10-16T02:07:37.980Z,15.70
2018-10-16T02:10:07.987Z,15.80
2018-10-16T02:12:38.366Z,15.80
2018-10-16T02:15:08.599Z,15.80
2018-10-16T02:17:38.715Z,15.80
2018-10-16T02:20:08.632Z,15.80
2018-10-16T02:22:38.845Z,15.80
2018-10-16T02:25:09.196Z,15.80
2018-10-16T02:27:38.889Z,15.80
2018-10-16T02:30:08.590Z,15.80
2018-10-16T02:32:37.901Z,15.80
2018-10-16T02:35:08.233Z,15.80
2018-10-16T02:37:37.524Z,15.70
2018-10-16T02:40:07.813Z,15.70
2018-10-16T02:42:37.178Z,15.60
2018-10-16T02:45:07.415Z,15.60
2018-10-16T02:47:36.768Z,15.50
2018-10-16T02:50:06.478Z,15.50
2018-10-16T02:52:35.734Z,15.50
2018-10-16T02:55:05.792Z,15.50
2018-10-16T02:57:35.152Z,15.50
2018-10-16T03:00:04.684Z,15.40
2018-10-16T03:02:34.112Z,15.40
2018-10-16T03:05:03.456Z,15.40
2018-10-16T03:07:32.877Z,15.40
2018-10-16T03:10:02.138Z,15.40
2018-10-16T03:12:31.551Z,15.30
2018-10-16T03:15:01.406Z,15.30
2018-10-16T03:17:30.705Z,15.20
2018-10-16T03:19:59.970Z,15.10
2018-10-16T03:22:29.222Z,15.00
2018-10-16T03:24:58.457Z,15.00
2018-10-16T03:27:27.754Z,14.90
2018-10-16T03:29:57.003Z,14.80
2018-10-16T03:32:26.322Z,14.70
2018-10-16T03:34:55.728Z,14.70
2018-10-16T03:37:25.037Z,14.70
2018-10-16T03:39:54.492Z,14.70
2018-10-16T03:42:23.752Z,14.60
2018-10-16T03:44:53.004Z,14.60
2018-10-16T03:47:22.380Z,14.60
2018-10-16T03:49:51.676Z,14.60
2018-10-16T03:52:21.014Z,14.50
2018-10-16T03:54:50.414Z,14.50
2018-10-16T03:57:21.273Z,14.40
2018-10-16T03:59:50.558Z,14.30
2018-10-16T04:02:19.894Z,14.30
2018-10-16T04:04:49.166Z,14.40
2018-10-16T04:07:18.424Z,14.40
2018-10-16T04:09:48.213Z,14.30
2018-10-16T04:12:17.526Z,14.30
2018-10-16T04:14:46.844Z,14.30
2018-10-16T04:17:16.132Z,14.30
2018-10-16T04:19:45.393Z,14.40
2018-10-16T04:22:14.673Z,14.40
2018-10-16T04:24:44.032Z,14.50
2018-10-16T04:27:13.289Z,14.50
2018-10-16T04:29:42.532Z,14.50
2018-10-16T04:32:11.864Z,14.50
2018-10-16T04:34:41.210Z,14.50
2018-10-16T04:37:11.279Z,14.60
2018-10-16T04:39:40.635Z,14.70
2018-10-16T04:42:10.022Z,14.80
2018-10-16T04:44:39.305Z,14.80
2018-10-16T04:47:08.566Z,14.90
2018-10-16T04:49:37.868Z,14.80
2018-10-16T04:52:07.144Z,14.80
2018-10-16T04:54:36.526Z,14.90
2018-10-16T04:57:05.805Z,14.90
2018-10-16T04:59:35.093Z,14.90
2018-10-16T05:02:04.408Z,14.90
2018-10-16T05:04:33.715Z,14.80
2018-10-16T05:07:03.103Z,14.90
2018-10-16T05:09:33.300Z,14.80
2018-10-16T05:12:02.681Z,14.80
2018-10-16T05:14:31.943Z,14.70
2018-10-16T05:17:01.965Z,14.70
2018-10-16T05:19:31.244Z,14.70
2018-10-16T05:22:00.761Z,14.80
2018-10-16T05:24:30.052Z,14.80
2018-10-16T05:26:59.361Z,14.80
2018-10-16T05:29:28.836Z,14.70
2018-10-16T05:31:58.274Z,14.70
2018-10-16T05:34:27.573Z,14.60
2018-10-16T05:36:56.872Z,14.60
2018-10-16T05:39:26.133Z,14.70
2018-10-16T05:41:55.408Z,14.60
2018-10-16T05:44:24.777Z,14.50
2018-10-16T05:46:54.162Z,14.50
2018-10-16T05:49:23.491Z,14.40
2018-10-16T05:51:52.754Z,14.40
2018-10-16T05:54:22.091Z,14.40
2018-10-16T05:56:51.352Z,14.30
2018-10-16T05:59:20.681Z,14.30
2018-10-16T06:01:49.955Z,14.30
2018-10-16T06:04:19.271Z,14.20
2018-10-16T06:06:48.530Z,14.20
2018-10-16T06:09:18.562Z,14.20
2018-10-16T06:11:47.870Z,14.10
2018-10-16T06:14:17.130Z,14.10
2018-10-16T06:16:46.395Z,14.10
2018-10-16T06:19:15.675Z,14.00
2018-10-16T06:21:45.072Z,14.00
2018-10-16T06:24:14.401Z,14.00
2018-10-16T06:26:44.292Z,14.00
2018-10-16T06:29:13.595Z,13.90
2018-10-16T06:31:43.033Z,13.90
2018-10-16T06:34:12.392Z,13.90
2018-10-16T06:36:41.780Z,13.90
2018-10-16T06:39:11.692Z,13.90
2018-10-16T06:41:41.027Z,13.90
2018-10-16T06:44:10.426Z,13.90
2018-10-16T06:46:39.845Z,13.90
2018-10-16T06:49:09.104Z,13.90
2018-10-16T06:51:38.451Z,13.90
2018-10-16T06:54:07.725Z,14.00
2018-10-16T06:56:37.229Z,14.00
2018-10-16T06:59:06.535Z,14.00
2018-10-16T07:01:35.912Z,14.00
2018-10-16T07:04:05.650Z,14.10
2018-10-16T07:06:35.296Z,14.20
2018-10-16T07:09:05.835Z,14.20
2018-10-16T07:11:37.218Z,14.30
2018-10-16T07:14:10.899Z,14.30
2018-10-16T07:16:40.293Z,14.40
2018-10-16T07:19:10.415Z,14.40
2018-10-16T07:21:40.140Z,14.50
2018-10-16T07:24:09.632Z,14.50
2018-10-16T07:26:38.936Z,14.50
2018-10-16T07:29:08.839Z,14.50
2018-10-16T07:31:38.310Z,14.60
2018-10-16T07:34:07.600Z,14.60
2018-10-16T07:36:36.914Z,14.60
2018-10-16T07:39:09.054Z,14.60
2018-10-16T07:41:39.271Z,14.70
2018-10-16T07:44:08.837Z,14.70
2018-10-16T07:46:38.170Z,14.80
2018-10-16T07:49:08.371Z,14.90
2018-10-16T07:51:38.260Z,14.90
2018-10-16T07:54:07.568Z,15.10
2018-10-16T07:56:36.884Z,15.10
2018-10-16T07:59:06.164Z,15.20
2018-10-16T08:01:35.417Z,15.20
2018-10-16T08:04:05.247Z,15.20
2018-10-16T08:06:34.542Z,15.20
2018-10-16T08:09:04.323Z,15.30
2018-10-16T08:11:33.783Z,15.40
2018-10-16T08:14:02.945Z,15.50
2018-10-16T08:16:32.251Z,15.60
2018-10-16T08:19:02.234Z,15.60
2018-10-16T08:21:31.676Z,15.70
2018-10-16T08:24:00.986Z,15.80
2018-10-16T08:26:31.713Z,15.80
2018-10-16T08:29:01.001Z,15.90
2018-10-16T08:31:30.685Z,15.90
2018-10-16T08:34:00.020Z,15.80
2018-10-16T08:36:29.441Z,15.90
2018-10-16T08:39:11.557Z,16.00
2018-10-16T08:42:21.325Z,16.40
2018-10-16T08:45:27.491Z,17.60
2018-10-16T08:48:07.883Z,18.70
2018-10-16T08:50:49.276Z,19.60
2018-10-16T08:53:19.563Z,20.70
2018-10-16T08:55:48.827Z,21.50
2018-10-16T08:58:18.108Z,22.30
2018-10-16T09:00:47.472Z,22.30
2018-10-16T09:03:16.862Z,22.00
2018-10-16T09:05:47.138Z,21.40
2018-10-16T09:08:16.490Z,20.90
2018-10-16T09:10:46.019Z,20.20
2018-10-16T09:13:15.391Z,19.80
2018-10-16T09:15:44.635Z,19.70
2018-10-16T09:18:13.895Z,19.60
2018-10-16T09:20:43.209Z,19.90
2018-10-16T09:23:12.530Z,20.70
2018-10-16T09:25:41.835Z,21.50
2018-10-16T09:28:11.822Z,22.10
2018-10-16T09:30:42.188Z,22.80
2018-10-16T09:33:11.461Z,23.50
2018-10-16T09:35:40.866Z,24.20
2018-10-16T09:38:10.194Z,24.80
2018-10-16T09:40:39.469Z,25.70
2018-10-16T09:43:08.795Z,26.60
2018-10-16T09:45:38.068Z,26.60
2018-10-16T09:48:07.330Z,26.70
2018-10-16T09:50:36.728Z,27.10
2018-10-16T09:53:06.764Z,27.30
2018-10-16T09:55:36.031Z,27.60
2018-10-16T09:58:05.396Z,28.40
2018-10-16T10:00:40.038Z,28.30
2018-10-16T10:03:09.369Z,28.30
2018-10-16T10:05:38.752Z,28.80
2018-10-16T10:08:08.873Z,29.00
2018-10-16T10:10:38.201Z,28.70
2018-10-16T10:13:07.663Z,28.50
2018-10-16T10:15:37.135Z,28.30
2018-10-16T10:18:06.522Z,28.40
2018-10-16T10:20:36.064Z,27.40
2018-10-16T10:23:05.808Z,27.10
2018-10-16T10:25:35.195Z,27.20
2018-10-16T10:28:04.572Z,26.60
2018-10-16T10:30:33.845Z,27.10
2018-10-16T10:33:03.146Z,27.20
2018-10-16T10:35:33.331Z,27.80
2018-10-16T10:38:09.317Z,27.80
2018-10-16T10:40:38.691Z,27.70
2018-10-16T10:43:08.149Z,27.40
2018-10-16T10:45:37.467Z,27.10
2018-10-16T10:48:07.021Z,26.70
2018-10-16T10:50:36.538Z,26.60
2018-10-16T10:53:05.613Z,26.80
2018-10-16T10:55:34.884Z,26.90
2018-10-16T10:58:04.191Z,27.40
2018-10-16T11:00:33.486Z,28.10
2018-10-16T11:03:02.914Z,28.40
2018-10-16T11:05:32.145Z,28.30
2018-10-16T11:08:01.516Z,28.60
2018-10-16T11:10:30.836Z,29.00
2018-10-16T11:13:00.113Z,29.10
2018-10-16T11:15:29.394Z,28.40
2018-10-16T11:17:59.449Z,27.30
2018-10-16T11:20:28.797Z,27.00
2018-10-16T11:22:58.199Z,28.00
2018-10-16T11:25:27.466Z,28.90
2018-10-16T11:27:56.815Z,29.10
2018-10-16T11:30:26.239Z,30.10
2018-10-16T11:32:55.556Z,30.60
2018-10-16T11:35:24.878Z,30.50
2018-10-16T11:37:54.181Z,30.60
2018-10-16T11:40:23.451Z,29.90
2018-10-16T11:42:52.761Z,29.00
2018-10-16T11:45:22.096Z,29.10
2018-10-16T11:47:51.598Z,29.30
2018-10-16T11:50:20.943Z,29.40
2018-10-16T11:52:51.009Z,28.90
2018-10-16T11:55:21.029Z,29.40
2018-10-16T11:57:50.425Z,29.40
2018-10-16T12:00:19.940Z,29.90
2018-10-16T12:02:49.393Z,29.70
2018-10-16T12:05:18.928Z,30.20
2018-10-16T12:07:48.197Z,30.80
2018-10-16T12:10:17.489Z,30.80
2018-10-16T12:12:46.874Z,30.90
2018-10-16T12:15:16.462Z,31.10
2018-10-16T12:17:50.923Z,31.10
2018-10-16T12:20:25.070Z,30.00
2018-10-16T12:22:54.482Z,29.40
2018-10-16T12:25:24.524Z,29.40
2018-10-16T12:27:54.036Z,29.20
2018-10-16T12:30:24.583Z,29.30
2018-10-16T12:32:54.067Z,29.20
2018-10-16T12:35:23.473Z,28.30
2018-10-16T12:37:52.883Z,28.50
2018-10-16T12:40:22.255Z,28.90
2018-10-16T12:42:51.626Z,28.80
2018-10-16T12:45:21.171Z,28.20
2018-10-16T12:47:51.187Z,28.00
2018-10-16T12:50:20.620Z,27.80
2018-10-16T12:52:51.382Z,28.50
2018-10-16T12:55:20.616Z,28.90
2018-10-16T12:57:50.704Z,30.30
2018-10-16T13:00:20.370Z,30.90
2018-10-16T13:02:49.646Z,31.20
2018-10-16T13:05:18.944Z,30.90
2018-10-16T13:07:48.460Z,30.80
2018-10-16T13:10:18.847Z,30.70
2018-10-16T13:12:48.495Z,30.00
2018-10-16T13:15:17.808Z,30.00
2018-10-16T13:17:47.088Z,30.40
2018-10-16T13:20:17.297Z,30.40
2018-10-16T13:22:47.895Z,29.50
2018-10-16T13:25:17.398Z,29.10
2018-10-16T13:27:46.806Z,29.20
2018-10-16T13:30:17.592Z,29.70
2018-10-16T13:32:48.000Z,30.00
2018-10-16T13:35:19.196Z,29.10
2018-10-16T13:37:48.936Z,28.00
2018-10-16T13:40:18.748Z,27.30
2018-10-16T13:42:48.067Z,26.80
2018-10-16T13:45:17.875Z,26.80
2018-10-16T13:47:47.332Z,27.00
2018-10-16T13:50:17.492Z,27.80
2018-10-16T13:52:47.335Z,28.20
2018-10-16T13:55:16.614Z,28.00
2018-10-16T13:57:45.971Z,27.60
2018-10-16T14:00:16.483Z,27.50
2018-10-16T14:02:47.333Z,27.50
2018-10-16T14:05:16.693Z,27.20
2018-10-16T14:07:46.048Z,27.60
2018-10-16T14:10:16.288Z,28.10
2018-10-16T14:12:46.754Z,28.50
2018-10-16T14:15:16.688Z,28.40
2018-10-16T14:17:47.372Z,27.80
2018-10-16T14:20:16.995Z,27.90
2018-10-16T14:22:46.247Z,27.90
2018-10-16T14:25:16.341Z,27.60
2018-10-16T14:27:45.888Z,27.20
2018-10-16T14:30:16.195Z,26.60
2018-10-16T14:32:45.654Z,26.20
2018-10-16T14:35:15.184Z,26.00
2018-10-16T14:37:44.463Z,25.70
2018-10-16T14:40:15.225Z,25.70
2018-10-16T14:42:44.713Z,25.80
2018-10-16T14:45:14.542Z,26.10
2018-10-16T14:47:43.817Z,26.30
2018-10-16T14:50:14.280Z,26.10
2018-10-16T14:52:43.583Z,25.90
2018-10-16T14:55:12.873Z,25.60
2018-10-16T14:57:43.036Z,25.20
2018-10-16T15:00:13.289Z,24.80
2018-10-16T15:02:42.570Z,24.50
2018-10-16T15:05:12.537Z,24.30
2018-10-16T15:07:42.558Z,24.40
2018-10-16T15:10:11.921Z,24.40
2018-10-16T15:12:41.288Z,24.20
2018-10-16T15:15:10.693Z,24.20
2018-10-16T15:17:40.161Z,24.50
2018-10-16T15:20:10.574Z,25.10
2018-10-16T15:22:39.780Z,25.90
2018-10-16T15:25:09.767Z,26.80
2018-10-16T15:27:39.130Z,27.40
2018-10-16T15:30:09.681Z,27.50
2018-10-16T15:32:39.101Z,27.30
2018-10-16T15:35:09.881Z,27.20
2018-10-16T15:37:39.479Z,26.90
2018-10-16T15:40:10.558Z,26.00
2018-10-16T15:42:40.468Z,25.30
2018-10-16T15:45:12.207Z,24.60
2018-10-16T15:47:42.103Z,23.90
2018-10-16T15:50:12.050Z,23.50
2018-10-16T15:52:41.305Z,23.10
2018-10-16T15:55:11.676Z,22.70
2018-10-16T15:57:40.984Z,22.40
2018-10-16T16:00:14.203Z,22.20
2018-10-16T16:02:43.440Z,22.00
2018-10-16T16:05:12.858Z,21.80
2018-10-16T16:07:42.216Z,21.60
2018-10-16T16:10:13.988Z,21.40
2018-10-16T16:12:43.270Z,21.20
2018-10-16T16:15:13.347Z,21.00
2018-10-16T16:17:43.959Z,20.90
2018-10-16T16:20:14.712Z,20.70
2018-10-16T16:22:44.313Z,20.60
2018-10-16T16:25:14.919Z,20.40
2018-10-16T16:27:44.330Z,20.30
2018-10-16T16:30:15.339Z,20.10
2018-10-16T16:32:44.798Z,19.90
2018-10-16T16:35:14.152Z,19.60
2018-10-16T16:37:44.819Z,19.50
2018-10-16T16:40:15.446Z,19.30
2018-10-16T16:42:44.718Z,19.20
2018-10-16T16:45:14.222Z,19.00
2018-10-16T16:47:43.647Z,18.80
2018-10-16T16:50:13.202Z,18.60
2018-10-16T16:52:42.994Z,18.40
2018-10-16T16:55:16.073Z,18.20
2018-10-16T16:57:45.677Z,18.10
2018-10-16T17:00:15.503Z,18.00
2018-10-16T17:02:45.755Z,17.90
2018-10-16T17:05:15.424Z,17.90
2018-10-16T17:07:45.095Z,17.90
2018-10-16T17:10:14.421Z,17.90
2018-10-16T17:12:44.058Z,17.90
2018-10-16T17:15:14.774Z,17.80
2018-10-16T17:17:50.883Z,17.60
2018-10-16T17:20:20.036Z,17.50
2018-10-16T17:22:49.321Z,17.50
2018-10-16T17:25:18.665Z,17.50
2018-10-16T17:27:47.988Z,17.50
2018-10-16T17:30:17.604Z,17.50
2018-10-16T17:32:46.894Z,17.40
2018-10-16T17:35:16.262Z,17.40
2018-10-16T17:37:45.616Z,17.40
2018-10-16T17:40:16.304Z,17.40
2018-10-16T17:42:45.816Z,17.40
2018-10-16T17:45:16.255Z,17.40
2018-10-16T17:47:45.702Z,17.40
2018-10-16T17:50:17.199Z,17.40
2018-10-16T17:52:46.617Z,17.30
2018-10-16T17:55:16.984Z,17.30
2018-10-16T17:57:46.431Z,17.20
2018-10-16T18:00:16.967Z,17.10
2018-10-16T18:02:46.560Z,17.10
2018-10-16T18:05:16.323Z,17.10
2018-10-16T18:07:45.995Z,17.00
2018-10-16T18:10:15.343Z,16.90
2018-10-16T18:12:45.864Z,16.90
2018-10-16T18:15:15.648Z,16.90
2018-10-16T18:17:44.954Z,17.00
2018-10-16T18:20:16.038Z,17.00
2018-10-16T18:22:46.004Z,17.00
2018-10-16T18:25:15.470Z,16.90
2018-10-16T18:27:45.673Z,16.80
2018-10-16T18:30:14.987Z,16.90
2018-10-16T18:32:44.463Z,16.90
2018-10-16T18:35:13.823Z,16.90
2018-10-16T18:37:43.923Z,16.80
2018-10-16T18:40:14.085Z,16.70
2018-10-16T18:42:43.419Z,16.70
2018-10-16T18:45:14.044Z,16.70
2018-10-16T18:47:43.244Z,16.70
2018-10-16T18:50:13.933Z,16.80
2018-10-16T18:52:44.244Z,16.80
2018-10-16T18:55:14.492Z,16.70
2018-10-16T18:57:43.843Z,16.60
2018-10-16T19:00:16.197Z,16.60
2018-10-16T19:02:45.937Z,16.50
2018-10-16T19:05:15.283Z,16.50
2018-10-16T19:07:44.771Z,16.40
2018-10-16T19:10:14.639Z,16.40
2018-10-16T19:12:43.993Z,16.40
2018-10-16T19:15:14.910Z,16.30
2018-10-16T19:17:44.980Z,16.30
2018-10-16T19:20:16.039Z,16.30
2018-10-16T19:22:46.449Z,16.30
2018-10-16T19:25:17.825Z,16.30
2018-10-16T19:27:47.292Z,16.30
2018-10-16T19:30:17.206Z,16.30
2018-10-16T19:32:46.581Z,16.30
2018-10-16T19:35:16.183Z,16.30
2018-10-16T19:37:45.538Z,16.20
2018-10-16T19:40:14.864Z,16.30
2018-10-16T19:42:44.952Z,16.30
2018-10-16T19:45:14.451Z,16.30
2018-10-16T19:47:43.657Z,16.30
2018-10-16T19:50:12.966Z,16.30
2018-10-16T19:52:42.354Z,16.30
2018-10-16T19:55:11.708Z,16.30
2018-10-16T19:57:40.996Z,16.30
2018-10-16T20:00:10.929Z,16.30
2018-10-16T20:02:40.186Z,16.20
2018-10-16T20:05:09.844Z,16.20
2018-10-16T20:07:39.192Z,16.20
2018-10-16T20:10:09.912Z,16.20
2018-10-16T20:12:39.378Z,16.20
2018-10-16T20:15:11.166Z,16.30
2018-10-16T20:17:40.576Z,16.30
2018-10-16T20:20:11.947Z,16.30
2018-10-16T20:22:41.698Z,16.30
2018-10-16T20:25:11.765Z,16.20
2018-10-16T20:27:41.033Z,16.10
2018-10-16T20:30:11.264Z,16.20
2018-10-16T20:32:41.916Z,16.20
2018-10-16T20:35:11.434Z,16.20
2018-10-16T20:37:40.740Z,16.30
2018-10-16T20:40:10.042Z,16.20
2018-10-16T20:42:39.356Z,16.20
2018-10-16T20:45:08.793Z,16.10
2018-10-16T20:47:38.672Z,16.00
2018-10-16T20:50:08.021Z,16.00
2018-10-16T20:52:37.627Z,15.90
2018-10-16T20:55:07.234Z,15.80
2018-10-16T20:57:36.858Z,15.70
2018-10-16T21:00:07.010Z,15.80
2018-10-16T21:02:37.406Z,15.80
2018-10-16T21:05:08.118Z,15.90
2018-10-16T21:07:37.244Z,15.90
2018-10-16T21:10:07.387Z,15.90
2018-10-16T21:12:36.827Z,15.90
2018-10-16T21:15:07.245Z,15.90
2018-10-16T21:17:36.560Z,15.90
2018-10-16T21:20:07.022Z,15.90
2018-10-16T21:22:36.405Z,15.90
2018-10-16T21:25:06.347Z,15.90
2018-10-16T21:27:35.629Z,15.80
2018-10-16T21:30:05.452Z,15.80
2018-10-16T21:32:34.915Z,15.80
2018-10-16T21:35:04.697Z,15.70
2018-10-16T21:37:33.931Z,15.70
2018-10-16T21:40:03.233Z,15.70
2018-10-16T21:42:32.677Z,15.70
2018-10-16T21:45:02.136Z,15.70
2018-10-16T21:47:31.476Z,15.60
2018-10-16T21:50:01.491Z,15.70
2018-10-16T21:52:30.803Z,15.70
2018-10-16T21:55:00.153Z,15.80
2018-10-16T21:57:29.457Z,15.80
2018-10-16T21:59:58.806Z,15.80
2018-10-16T22:02:34.168Z,15.90
2018-10-16T22:05:03.495Z,16.00
2018-10-16T22:07:32.746Z,16.00
2018-10-16T22:10:02.688Z,16.00
2018-10-16T22:12:31.996Z,15.90
2018-10-16T22:15:01.305Z,16.00
2018-10-16T22:17:30.619Z,16.00
2018-10-16T22:20:00.353Z,16.00
2018-10-16T22:22:29.716Z,16.00
2018-10-16T22:24:59.052Z,16.00
2018-10-16T22:27:28.336Z,15.90
2018-10-16T22:29:57.709Z,16.00
2018-10-16T22:32:26.992Z,15.90
2018-10-16T22:34:56.638Z,15.90
2018-10-16T22:37:25.932Z,15.90
2018-10-16T22:39:55.193Z,15.90
2018-10-16T22:42:24.478Z,15.90
2018-10-16T22:44:53.745Z,15.90
2018-10-16T22:47:23.061Z,15.90
2018-10-16T22:49:52.393Z,15.90
2018-10-16T22:52:21.838Z,15.90
2018-10-16T22:54:51.292Z,16.00
2018-10-16T22:57:20.571Z,16.00
2018-10-16T22:59:49.829Z,16.10
2018-10-16T23:02:19.135Z,16.00
2018-10-16T23:04:48.434Z,16.00
2018-10-16T23:07:17.732Z,16.00
2018-10-16T23:09:47.167Z,16.00
2018-10-16T23:12:16.547Z,16.10
2018-10-16T23:14:45.906Z,16.00
2018-10-16T23:17:15.231Z,16.00
2018-10-16T23:19:44.543Z,15.90
2018-10-16T23:22:13.812Z,16.00
2018-10-16T23:24:43.142Z,16.00
2018-10-16T23:27:12.436Z,16.00
2018-10-16T23:29:41.704Z,15.90
2018-10-16T23:32:10.980Z,15.90
2018-10-16T23:34:40.391Z,15.90
2018-10-16T23:37:09.747Z,15.90
2018-10-16T23:39:41.924Z,15.90
2018-10-16T23:42:11.415Z,15.90
2018-10-16T23:44:40.662Z,16.00
2018-10-16T23:47:10.002Z,16.00
2018-10-16T23:49:39.203Z,16.00
2018-10-16T23:52:08.480Z,15.90
2018-10-16T23:54:37.781Z,15.90
2018-10-16T23:57:07.109Z,15.90
2018-10-16T23:59:36.431Z,15.80
